Time;durP1;ratioP1;P1;durP2;ratioP2;P2;SDS_P1;SDS_P2;PMS_P1;PMS_P2;Temp;Humidity;BMP_temperature;BMP_pressure;BME280_temperature;BME280_humidity;BME280_pressure;Samples;Min_cycle;Max_cycle;Signal;HPM_P1;HPM_P2
2021/04/25 00:02:17;;;;;;;;;;;;;;;12.14;58.82;101048.25;4988197;28;19913;-86
2021/04/25 00:05:03;;;;;;;;;;;;;;;12.28;58.41;101054.38;5000477;28;19913;-86
2021/04/25 00:07:48;;;;;;;;;;;;;;;12.18;58.54;101046.47;5003962;28;20301;-87
2021/04/25 00:10:32;;;;;;;;;;;;;;;12.12;58.25;101051.28;5002243;28;19914;-87
2021/04/25 00:13:17;;;;;;;;;;;;;;;12.16;58.22;101048.72;4994689;28;19914;-86
2021/04/25 00:16:02;;;;;;;;;;;;;;;12.27;58.25;101042.66;4997431;28;19913;-85
2021/04/25 00:18:47;;;;;;;;;;;;;;;12.33;57.85;101035.94;5002258;28;20386;-87
2021/04/25 00:21:32;;;;;;;;;;;;;;;12.08;58.33;101033.16;5006166;28;19914;-87
2021/04/25 00:24:16;;;;;;;;;;;;;;;12.19;57.61;101023.56;5004447;28;19913;-85
2021/04/25 00:27:01;;;;;;;;;;;;;;;12.26;57.36;101024.69;5002981;28;19914;-86
2021/04/25 00:29:46;;;;;;;;;;;;;;;12.22;57.73;101021.00;4999964;28;19914;-85
2021/04/25 00:32:31;;;;;;;;;;;;;;;12.23;57.65;101005.44;5004923;28;19913;-87
2021/04/25 00:35:16;;;;;;;;;;;;;;;12.21;57.61;101000.28;5001847;28;19914;-86
2021/04/25 00:38:01;;;;;;;;;;;;;;;12.16;57.54;101002.38;5016701;28;19913;-87
2021/04/25 00:40:45;;;;;;;;;;;;;;;12.07;58.09;100990.66;5004760;28;20383;-86
2021/04/25 00:43:30;;;;;;;;;;;;;;;12.04;58.26;100983.13;5004325;28;19918;-85
2021/04/25 00:46:14;;;;;;;;;;;;;;;12.05;58.39;100987.44;5002853;28;20390;-85
2021/04/25 00:48:59;;;;;;;;;;;;;;;11.96;58.75;100988.22;5000037;28;20385;-87
2021/04/25 00:51:44;;;;;;;;;;;;;;;11.91;58.70;100980.22;5002413;28;19917;-85
2021/04/25 00:54:30;;;;;;;;;;;;;;;11.91;59.09;100985.66;4994544;28;20382;-85
2021/04/25 00:57:16;;;;;;;;;;;;;;;12.07;59.02;100980.56;4980100;28;19914;-86
2021/04/25 01:00:01;;;;;;;;;;;;;;;12.00;59.02;100983.75;4984493;28;19922;-85
2021/04/25 01:02:46;;;;;;;;;;;;;;;11.97;58.58;100981.66;4994585;28;19914;-86
2021/04/25 01:05:30;;;;;;;;;;;;;;;11.93;58.79;100980.69;4999574;28;19917;-86
2021/04/25 01:08:15;;;;;;;;;;;;;;;11.90;58.93;100975.88;5003584;28;19913;-86
2021/04/25 01:11:00;;;;;;;;;;;;;;;11.94;59.08;100984.19;5002048;28;19914;-86
2021/04/25 01:13:50;;;;;;;;;;;;;;;11.93;58.88;100972.53;4999285;28;19914;-86
2021/04/25 01:16:34;;;;;;;;;;;;;;;11.94;59.24;100973.31;5002171;28;19914;-86
2021/04/25 01:19:19;;;;;;;;;;;;;;;12.03;58.21;100973.34;4998354;28;19918;-85
2021/04/25 01:22:04;;;;;;;;;;;;;;;12.05;58.08;100973.81;4998725;28;19914;-86
2021/04/25 01:24:49;;;;;;;;;;;;;;;12.04;57.59;100966.78;4999794;28;19914;-84
2021/04/25 01:27:34;;;;;;;;;;;;;;;12.06;58.01;100970.78;5000624;28;19913;-86
2021/04/25 01:30:20;;;;;;;;;;;;;;;11.98;58.18;100972.38;4999633;28;19914;-87
2021/04/25 01:33:04;;;;;;;;;;;;;;;11.88;58.26;100975.41;5002664;28;19914;-87
2021/04/25 01:35:50;;;;;;;;;;;;;;;11.97;58.20;100976.22;5000092;28;20389;-86
2021/04/25 01:38:35;;;;;;;;;;;;;;;11.97;58.00;100981.66;5000945;28;19914;-85
2021/04/25 01:41:19;;;;;;;;;;;;;;;11.92;57.78;100975.56;5004371;28;19918;-86
2021/04/25 01:44:04;;;;;;;;;;;;;;;11.91;57.80;100976.69;5002530;28;20305;-87
2021/04/25 01:46:49;;;;;;;;;;;;;;;11.90;58.57;100972.34;4999446;28;19913;-87
2021/04/25 01:49:33;;;;;;;;;;;;;;;12.05;58.11;100973.81;4997585;28;19917;-86
2021/04/25 01:52:19;;;;;;;;;;;;;;;11.99;57.74;100970.44;4997611;28;20309;-86
2021/04/25 01:55:05;;;;;;;;;;;;;;;11.96;57.73;100963.69;5012801;28;19897;-86
2021/04/25 01:57:51;;;;;;;;;;;;;;;11.99;57.58;100963.06;4997719;28;19917;-86
2021/04/25 02:00:39;;;;;;;;;;;;;;;12.10;57.24;100960.03;4987432;28;20313;-86
2021/04/25 02:03:25;;;;;;;;;;;;;;;12.02;57.42;100969.81;5007824;28;19914;-86
2021/04/25 02:06:09;;;;;;;;;;;;;;;11.91;57.93;100968.50;4986215;28;19917;-86
2021/04/25 02:08:54;;;;;;;;;;;;;;;11.80;58.21;100965.25;4999598;28;19913;-86
2021/04/25 02:11:39;;;;;;;;;;;;;;;11.72;58.24;100966.03;4999623;28;19914;-86
2021/04/25 02:14:23;;;;;;;;;;;;;;;11.74;58.07;100963.00;4996317;28;19914;-85
2021/04/25 02:17:08;;;;;;;;;;;;;;;11.78;58.16;100964.81;4995974;28;19914;-86
2021/04/25 02:19:54;;;;;;;;;;;;;;;11.68;58.34;100951.44;5004805;28;19918;-86
2021/04/25 02:22:39;;;;;;;;;;;;;;;11.69;58.10;100958.47;4998259;28;19914;-86
2021/04/25 02:25:25;;;;;;;;;;;;;;;11.68;58.50;100951.44;5002185;28;19913;-85
2021/04/25 02:28:10;;;;;;;;;;;;;;;11.69;58.31;100950.31;4999412;28;19913;-86
2021/04/25 02:30:55;;;;;;;;;;;;;;;11.58;58.64;100948.97;4997506;28;20406;-86
2021/04/25 02:33:39;;;;;;;;;;;;;;;11.59;58.62;100945.16;5003113;28;19914;-87
2021/04/25 02:36:24;;;;;;;;;;;;;;;11.47;59.19;100942.25;5001268;28;19913;-86
2021/04/25 02:39:09;;;;;;;;;;;;;;;11.37;59.12;100935.16;4998455;28;19913;-86
2021/04/25 02:41:54;;;;;;;;;;;;;;;11.38;59.15;100938.66;5002220;28;19914;-86
2021/04/25 02:44:39;;;;;;;;;;;;;;;11.34;59.35;100932.25;5000465;28;20391;-86
2021/04/25 02:47:23;;;;;;;;;;;;;;;11.35;59.34;100937.38;4998178;28;19914;-85
2021/04/25 02:50:08;;;;;;;;;;;;;;;11.36;59.95;100933.56;5003098;28;19914;-87
2021/04/25 02:52:52;;;;;;;;;;;;;;;11.38;59.61;100931.31;5000604;28;20297;-86
2021/04/25 02:55:38;;;;;;;;;;;;;;;11.32;59.93;100929.06;4992651;28;20293;-86
2021/04/25 02:58:23;;;;;;;;;;;;;;;11.37;60.17;100928.91;4993360;28;19921;-86
2021/04/25 03:01:07;;;;;;;;;;;;;;;11.27;60.15;100921.84;5003758;28;19918;-86
2021/04/25 03:03:52;;;;;;;;;;;;;;;11.20;60.43;100921.47;4998492;28;19913;-85
2021/04/25 03:06:38;;;;;;;;;;;;;;;11.28;60.72;100922.59;4984153;28;19914;-86
2021/04/25 03:09:22;;;;;;;;;;;;;;;11.15;60.77;100921.63;5009490;28;20381;-86
2021/04/25 03:12:07;;;;;;;;;;;;;;;11.04;61.34;100929.25;5009730;28;20305;-84
2021/04/25 03:14:52;;;;;;;;;;;;;;;10.99;61.83;100923.94;4998608;28;19914;-85
2021/04/25 03:17:37;;;;;;;;;;;;;;;11.04;61.42;100920.28;5004762;28;19914;-86
2021/04/25 03:20:22;;;;;;;;;;;;;;;11.01;61.29;100919.00;4988636;28;19917;-86
2021/04/25 03:23:07;;;;;;;;;;;;;;;11.05;60.97;100913.72;4999734;28;19913;-86
2021/04/25 03:25:52;;;;;;;;;;;;;;;11.12;61.16;100903.19;5002989;28;19914;-87
2021/04/25 03:28:37;;;;;;;;;;;;;;;11.13;60.98;100899.34;5001452;28;19913;-86
2021/04/25 03:31:21;;;;;;;;;;;;;;;11.14;60.67;100906.41;5001893;28;19914;-86
2021/04/25 03:34:07;;;;;;;;;;;;;;;11.21;61.01;100903.22;5004583;28;19913;-85
2021/04/25 03:36:51;;;;;;;;;;;;;;;11.09;60.95;100903.81;4969109;28;19918;-86
2021/04/25 03:39:35;;;;;;;;;;;;;;;10.98;61.50;100902.47;5013160;23;19925;-81
2021/04/25 03:42:20;;;;;;;;;;;;;;;10.97;61.70;100901.66;4979073;28;20211;-81
2021/04/25 03:45:05;;;;;;;;;;;;;;;10.97;61.56;100901.66;4976579;28;19962;-80
2021/04/25 03:47:51;;;;;;;;;;;;;;;10.97;61.67;100906.34;4975475;28;19914;-81
2021/04/25 03:50:36;;;;;;;;;;;;;;;11.01;61.58;100890.97;4967058;28;19914;-81
2021/04/25 03:53:20;;;;;;;;;;;;;;;11.08;61.64;100891.31;4978287;28;19914;-81
2021/04/25 03:56:05;;;;;;;;;;;;;;;11.03;61.07;100884.09;4975501;28;19914;-81
2021/04/25 03:58:50;;;;;;;;;;;;;;;11.05;61.16;100881.06;4965436;28;19914;-81
2021/04/25 04:01:35;;;;;;;;;;;;;;;11.06;60.58;100878.03;4964870;28;20406;-81
2021/04/25 04:04:20;;;;;;;;;;;;;;;10.92;61.12;100876.53;4962175;28;19913;-80
2021/04/25 04:07:06;;;;;;;;;;;;;;;10.95;60.90;100876.72;4964951;28;20286;-81
2021/04/25 04:09:50;;;;;;;;;;;;;;;11.06;60.90;100874.50;4976618;28;19914;-81
2021/04/25 04:12:34;;;;;;;;;;;;;;;11.09;60.95;100879.31;4976174;28;19914;-81
2021/04/25 04:15:20;;;;;;;;;;;;;;;11.13;60.01;100877.56;4980751;28;19914;-80
2021/04/25 04:18:05;;;;;;;;;;;;;;;11.12;59.81;100876.75;4963805;28;19914;-79
2021/04/25 04:20:50;;;;;;;;;;;;;;;11.02;60.26;100868.09;4984073;28;19918;-80
2021/04/25 04:23:34;;;;;;;;;;;;;;;11.11;60.47;100869.72;4966287;28;19915;-77
2021/04/25 04:26:19;;;;;;;;;;;;;;;11.18;59.48;100879.34;4975996;28;20011;-81
2021/04/25 04:29:04;;;;;;;;;;;;;;;11.25;59.69;100885.94;4975975;28;19914;-81
2021/04/25 04:31:48;;;;;;;;;;;;;;;11.28;59.41;100882.56;4981684;28;19918;-81
2021/04/25 04:34:33;;;;;;;;;;;;;;;11.24;59.01;100878.09;4964138;28;19914;-81
2021/04/25 04:37:19;;;;;;;;;;;;;;;11.27;58.88;100877.47;4975883;28;20330;-79
2021/04/25 04:40:04;;;;;;;;;;;;;;;11.32;59.39;100880.06;4978688;28;20362;-80
2021/04/25 04:42:49;;;;;;;;;;;;;;;11.40;58.60;100881.97;4979338;28;19918;-80
2021/04/25 04:45:34;;;;;;;;;;;;;;;11.51;58.91;100889.56;4976861;28;20370;-81
2021/04/25 04:48:20;;;;;;;;;;;;;;;11.56;58.08;100891.31;4947248;28;19918;-81
2021/04/25 04:51:05;;;;;;;;;;;;;;;11.50;58.33;100887.13;4944778;28;20366;-79
2021/04/25 04:53:51;;;;;;;;;;;;;;;11.44;58.58;100883.75;4956459;28;19914;-81
2021/04/25 04:56:35;;;;;;;;;;;;;;;11.51;58.47;100881.38;4956809;28;19918;-79
2021/04/25 04:59:20;;;;;;;;;;;;;;;11.49;58.08;100888.25;4977966;28;19914;-81
2021/04/25 05:02:04;;;;;;;;;;;;;;;11.68;57.23;100888.78;4974880;28;19918;-80
2021/04/25 05:04:48;;;;;;;;;;;;;;;11.77;56.43;100886.09;4959245;28;20185;-80
2021/04/25 05:07:33;;;;;;;;;;;;;;;11.63;57.00;100886.19;4977198;28;19914;-79
2021/04/25 05:10:19;;;;;;;;;;;;;;;11.83;56.48;100880.19;4962763;28;19914;-81
2021/04/25 05:13:08;;;;;;;;;;;;;;;11.97;56.04;100885.47;4960149;28;20301;-81
2021/04/25 05:15:53;;;;;;;;;;;;;;;12.14;55.91;100890.91;4963468;28;19914;-80
2021/04/25 05:18:39;;;;;;;;;;;;;;;12.29;55.36;100892.38;4975825;28;19914;-80
2021/04/25 05:21:23;;;;;;;;;;;;;;;12.46;56.58;100889.59;4972835;28;19918;-81
2021/04/25 05:24:10;;;;;;;;;;;;;;;12.65;55.90;100890.03;4983454;28;19913;-81
2021/04/25 05:26:54;;;;;;;;;;;;;;;12.74;56.18;100893.56;4962835;28;20302;-79
2021/04/25 05:29:39;;;;;;;;;;;;;;;12.94;55.80;100900.25;4961729;28;19918;-81
2021/04/25 05:32:23;;;;;;;;;;;;;;;13.12;55.41;100895.56;4968427;28;19914;-81
2021/04/25 05:35:07;;;;;;;;;;;;;;;13.25;55.56;100892.63;4981359;28;19913;-81
2021/04/25 05:37:53;;;;;;;;;;;;;;;13.36;55.37;100903.94;4979988;28;19914;-80
2021/04/25 05:40:37;;;;;;;;;;;;;;;13.48;55.07;100895.06;4969583;28;19918;-81
2021/04/25 05:43:21;;;;;;;;;;;;;;;13.73;53.91;100901.50;4976392;28;20385;-79
2021/04/25 05:46:06;;;;;;;;;;;;;;;13.78;53.69;100904.84;4975508;28;19914;-80
2021/04/25 05:48:51;;;;;;;;;;;;;;;13.95;53.23;100907.47;4979312;28;19914;-81
2021/04/25 05:51:36;;;;;;;;;;;;;;;14.08;53.16;100903.66;4961473;28;20375;-79
2021/04/25 05:54:21;;;;;;;;;;;;;;;14.30;52.42;100907.97;4956205;28;19914;-80
2021/04/25 05:57:07;;;;;;;;;;;;;;;14.34;52.18;100911.63;4958112;28;20386;-81
2021/04/25 05:59:52;;;;;;;;;;;;;;;14.61;51.31;100913.03;4964006;28;20378;-81
2021/04/25 06:02:36;;;;;;;;;;;;;;;14.50;50.71;100914.59;4960739;28;19914;-81
2021/04/25 06:05:21;;;;;;;;;;;;;;;14.48;50.51;100906.69;4972995;28;19918;-81
2021/04/25 06:08:05;;;;;;;;;;;;;;;14.64;50.60;100911.53;4963064;28;19914;-81
2021/04/25 06:10:50;;;;;;;;;;;;;;;14.54;51.18;100916.31;4977961;28;20385;-80
2021/04/25 06:13:34;;;;;;;;;;;;;;;14.40;51.85;100923.22;4959464;28;19914;-80
2021/04/25 06:16:20;;;;;;;;;;;;;;;14.67;50.30;100919.91;4963485;28;19914;-81
2021/04/25 06:19:05;;;;;;;;;;;;;;;14.85;50.86;100912.28;4966337;28;19914;-81
2021/04/25 06:21:49;;;;;;;;;;;;;;;14.68;50.97;100920.69;4960470;28;19922;-80
2021/04/25 06:24:34;;;;;;;;;;;;;;;14.77;50.15;100913.19;4963286;28;19914;-81
2021/04/25 06:27:19;;;;;;;;;;;;;;;14.60;50.92;100916.09;4988419;28;19918;-80
2021/04/25 06:30:05;;;;;;;;;;;;;;;15.09;49.32;100906.84;4984781;28;19914;-81
2021/04/25 06:32:49;;;;;;;;;;;;;;;15.43;48.49;100910.31;4950234;28;20394;-81
2021/04/25 06:35:34;;;;;;;;;;;;;;;15.56;48.84;100907.25;4962386;28;19914;-81
2021/04/25 06:38:20;;;;;;;;;;;;;;;15.59;48.49;100901.09;4975403;28;20389;-80
2021/04/25 06:41:05;;;;;;;;;;;;;;;15.66;47.66;100906.78;4947316;28;19919;-79
2021/04/25 06:43:49;;;;;;;;;;;;;;;15.99;46.67;100903.88;4954097;28;19918;-81
2021/04/25 06:46:34;;;;;;;;;;;;;;;16.46;44.74;100905.97;4972395;28;19914;-80
2021/04/25 06:49:19;;;;;;;;;;;;;;;16.62;44.32;100915.88;4965469;28;19914;-82
2021/04/25 06:52:04;;;;;;;;;;;;;;;16.70;44.41;100911.41;4962505;28;19914;-81
2021/04/25 06:54:49;;;;;;;;;;;;;;;16.96;43.23;100908.97;4962966;28;19914;-79
2021/04/25 06:57:33;;;;;;;;;;;;;;;16.98;43.24;100909.38;5001870;28;19914;-81
2021/04/25 07:00:20;;;;;;;;;;;;;;;17.37;41.77;100907.59;4983516;28;19917;-79
2021/04/25 07:03:04;;;;;;;;;;;;;;;17.31;41.43;100908.25;4983864;28;19914;-79
2021/04/25 07:05:49;;;;;;;;;;;;;;;17.67;41.16;100904.41;4957533;28;19914;-81
2021/04/25 07:08:34;;;;;;;;;;;;;;;17.27;41.69;100896.38;4988532;28;19914;-81
2021/04/25 07:11:19;;;;;;;;;;;;;;;18.02;40.48;100904.41;4960729;28;19933;-80
2021/04/25 07:14:03;;;;;;;;;;;;;;;18.75;39.10;100902.34;4973538;28;19918;-81
2021/04/25 07:16:48;;;;;;;;;;;;;;;18.81;39.10;100897.34;4974076;28;19918;-81
2021/04/25 07:19:33;;;;;;;;;;;;;;;19.06;38.10;100898.56;4962274;28;19914;-80
2021/04/25 07:22:17;;;;;;;;;;;;;;;19.17;38.70;100898.75;4956732;28;19929;-80
2021/04/25 07:25:03;;;;;;;;;;;;;;;20.00;37.29;100896.88;4980742;28;19913;-81
2021/04/25 07:27:47;;;;;;;;;;;;;;;20.31;35.96;100906.78;4979288;28;19914;-79
2021/04/25 07:30:32;;;;;;;;;;;;;;;19.80;36.77;100901.75;4962343;28;19914;-80
2021/04/25 07:33:17;;;;;;;;;;;;;;;21.11;34.39;100897.72;4981304;28;19914;-81
2021/04/25 07:36:03;;;;;;;;;;;;;;;22.48;32.27;100904.53;4979211;28;19914;-80
2021/04/25 07:38:48;;;;;;;;;;;;;;;24.67;28.67;100906.28;4977487;28;19914;-81
2021/04/25 07:41:33;;;;;;;;;;;;;;;24.54;27.58;100900.38;4961827;28;19918;-82
2021/04/25 07:44:17;;;;;;;;;;;;;;;24.04;27.79;100890.66;4979432;28;19914;-81
2021/04/25 07:47:02;;;;;;;;;;;;;;;24.76;26.31;100889.94;4977781;28;20385;-80
2021/04/25 07:49:47;;;;;;;;;;;;;;;25.71;25.13;100898.72;4965906;28;19914;-81
2021/04/25 07:52:31;;;;;;;;;;;;;;;26.69;23.72;100901.53;4979603;28;19914;-82
2021/04/25 07:55:16;;;;;;;;;;;;;;;26.38;24.43;100901.53;4962880;28;19914;-81
2021/04/25 07:58:01;;;;;;;;;;;;;;;25.10;26.58;100904.03;4966437;28;20286;-81
2021/04/25 08:00:45;;;;;;;;;;;;;;;25.42;26.05;100910.13;4963079;28;19918;-80
2021/04/25 08:03:30;;;;;;;;;;;;;;;27.37;23.62;100904.88;4961918;28;19918;-82
2021/04/25 08:06:15;;;;;;;;;;;;;;;28.39;21.71;100907.69;4961627;28;19914;-82
2021/04/25 08:08:59;;;;;;;;;;;;;;;27.15;22.55;100904.44;4979806;28;20289;-81
2021/04/25 08:11:43;;;;;;;;;;;;;;;28.75;19.76;100909.75;4963164;28;19914;-82
2021/04/25 08:14:28;;;;;;;;;;;;;;;30.75;18.07;100909.59;4976013;28;19918;-80
2021/04/25 08:17:12;;;;;;;;;;;;;;;29.75;19.31;100911.66;4965214;28;19914;-82
2021/04/25 08:19:57;;;;;;;;;;;;;;;30.08;19.09;100907.53;4963374;28;19914;-81
2021/04/25 08:22:41;;;;;;;;;;;;;;;31.11;17.98;100896.00;4961465;28;19925;-80
2021/04/25 08:25:27;;;;;;;;;;;;;;;30.51;18.56;100907.13;4982490;28;19914;-80
2021/04/25 08:28:11;;;;;;;;;;;;;;;30.16;18.51;100908.13;4977820;28;19914;-78
2021/04/25 08:30:56;;;;;;;;;;;;;;;29.81;19.37;100909.13;4961630;28;19918;-78
2021/04/25 08:33:41;;;;;;;;;;;;;;;29.71;18.89;100899.75;4965312;28;19918;-79
2021/04/25 08:36:26;;;;;;;;;;;;;;;29.68;19.01;100898.63;4963639;28;19913;-77
2021/04/25 08:39:12;;;;;;;;;;;;;;;33.24;15.46;100902.16;4976227;28;19918;-78
2021/04/25 08:41:56;;;;;;;;;;;;;;;33.38;14.95;100904.34;4965559;28;20306;-78
2021/04/25 08:44:42;;;;;;;;;;;;;;;33.02;15.23;100905.81;4963399;28;19914;-79
2021/04/25 08:47:28;;;;;;;;;;;;;;;31.97;16.50;100905.84;4961804;28;20386;-75
2021/04/25 08:50:13;;;;;;;;;;;;;;;29.91;18.44;100900.44;4978534;28;19914;-76
2021/04/25 08:52:58;;;;;;;;;;;;;;;27.06;22.91;100893.00;4968842;28;20386;-77
2021/04/25 08:55:43;;;;;;;;;;;;;;;25.14;23.20;100893.69;4976732;28;20374;-77
2021/04/25 08:58:27;;;;;;;;;;;;;;;24.15;24.91;100888.66;4980682;28;19914;-78
2021/04/25 09:01:12;;;;;;;;;;;;;;;23.28;27.32;100880.09;4961489;28;20321;-78
2021/04/25 09:03:57;;;;;;;;;;;;;;;23.12;27.24;100876.91;4962594;28;19914;-79
2021/04/25 09:06:58;;;;;;;;;;;;;;;22.77;27.36;100875.72;4960813;28;19914;-79
2021/04/25 09:09:47;;;;;;;;;;;;;;;22.31;29.19;100872.78;4975015;28;19914;-79
2021/04/25 09:12:33;;;;;;;;;;;;;;;22.22;29.14;100866.84;4961117;28;19914;-80
2021/04/25 09:15:20;;;;;;;;;;;;;;;21.79;30.43;100854.72;4964588;28;19914;-81
2021/04/25 09:18:05;;;;;;;;;;;;;;;21.70;29.13;100855.09;4962913;28;19914;-79
2021/04/25 09:20:50;;;;;;;;;;;;;;;21.72;30.57;100849.97;4961310;28;20294;-81
2021/04/25 09:23:35;;;;;;;;;;;;;;;21.40;30.62;100845.41;4979611;28;20307;-81
2021/04/25 09:26:20;;;;;;;;;;;;;;;21.48;28.56;100847.06;4963310;28;19914;-82
2021/04/25 09:29:04;;;;;;;;;;;;;;;21.51;29.93;100849.03;4961093;28;19914;-83
2021/04/25 09:31:50;;;;;;;;;;;;;;;21.49;29.34;100843.88;4965622;28;19914;-81
2021/04/25 09:34:35;;;;;;;;;;;;;;;21.55;30.37;100836.03;4963104;28;19914;-82
2021/04/25 09:37:20;;;;;;;;;;;;;;;21.13;30.35;100837.28;4976402;28;20109;-83
2021/04/25 09:40:09;;;;;;;;;;;;;;;21.38;29.34;100828.41;4992269;23;19922;-83
2021/04/25 09:43:00;;;;;;;;;;;;;;;21.15;30.87;100826.69;4960592;28;19922;-83
2021/04/25 09:45:46;;;;;;;;;;;;;;;20.90;32.22;100828.41;4958838;28;20382;-83
2021/04/25 09:48:32;;;;;;;;;;;;;;;21.04;31.28;100836.03;4964516;28;19918;-83
2021/04/25 09:51:17;;;;;;;;;;;;;;;21.06;31.31;100837.25;4962487;28;19914;-83
2021/04/25 09:54:03;;;;;;;;;;;;;;;20.77;31.59;100836.22;4959582;28;20225;-83
2021/04/25 09:56:48;;;;;;;;;;;;;;;20.87;30.66;100829.19;4963968;28;19914;-83
2021/04/25 09:59:32;;;;;;;;;;;;;;;20.68;33.17;100832.16;4947738;29;19914;-83
2021/04/25 10:02:17;;;;;;;;;;;;;;;20.78;31.19;100831.47;4960113;28;19918;-83
2021/04/25 10:05:05;;;;;;;;;;;;;;;20.84;31.60;100829.94;4963061;28;19914;-83
2021/04/25 10:07:51;;;;;;;;;;;;;;;21.10;29.30;100821.47;4947573;29;19914;-83
2021/04/25 10:10:37;;;;;;;;;;;;;;;20.93;30.43;100822.91;4959561;28;19914;-83
2021/04/25 10:13:22;;;;;;;;;;;;;;;20.84;31.08;100827.97;4949913;28;19914;-83
2021/04/25 10:16:07;;;;;;;;;;;;;;;21.04;29.27;100819.44;4962843;28;20382;-83
2021/04/25 10:18:52;;;;;;;;;;;;;;;20.96;29.83;100821.38;4946489;29;19914;-83
2021/04/25 10:21:38;;;;;;;;;;;;;;;21.18;29.56;100814.84;4961229;28;19918;-83
2021/04/25 10:24:23;;;;;;;;;;;;;;;21.10;29.40;100820.69;4948263;29;20409;-83
2021/04/25 10:27:14;;;;;;;;;;;;;;;21.45;27.80;100825.69;4945843;29;19915;-83
2021/04/25 10:30:01;;;;;;;;;;;;;;;21.31;29.99;100820.84;4963580;28;20297;-82
2021/04/25 10:32:53;;;;;;;;;;;;;;;21.34;29.61;100825.59;4960390;28;19914;-83
2021/04/25 10:35:38;;;;;;;;;;;;;;;21.28;30.21;100827.19;4946332;29;19914;-83
2021/04/25 10:38:37;;;;;;;;;;;;;;;21.09;31.12;100821.84;4936335;29;19915;-83
2021/04/25 10:41:23;;;;;;;;;;;;;;;21.03;31.90;100820.63;4945626;29;19918;-83
2021/04/25 10:44:07;;;;;;;;;;;;;;;21.13;31.95;100808.88;4945295;29;20374;-83
2021/04/25 10:46:55;;;;;;;;;;;;;;;21.34;29.86;100812.56;4948364;29;19914;-83
2021/04/25 10:49:40;;;;;;;;;;;;;;;21.56;28.73;100807.97;4947151;29;19914;-83
2021/04/25 10:52:29;;;;;;;;;;;;;;;21.71;29.08;100806.06;4959120;29;19914;-83
2021/04/25 10:55:19;;;;;;;;;;;;;;;21.66;29.62;100800.91;4948828;29;19918;-83
2021/04/25 10:58:07;;;;;;;;;;;;;;;21.57;29.15;100797.69;4946815;29;19918;-83
2021/04/25 11:00:52;;;;;;;;;;;;;;;21.74;28.13;100788.66;4945492;29;19914;-83
2021/04/25 11:03:37;;;;;;;;;;;;;;;21.83;29.53;100786.34;4965409;29;20377;-83
2021/04/25 11:06:26;;;;;;;;;;;;;;;21.93;29.50;100785.59;4962220;29;19914;-83
2021/04/25 11:09:31;;;;;;;;;;;;;;;21.72;29.99;100778.00;4944615;29;19914;-83
2021/04/25 11:12:34;;;;;;;;;;;;;;;22.07;27.78;100774.59;4944314;29;19914;-83
2021/04/25 11:15:39;;;;;;;;;;;;;;;22.32;27.68;100768.28;4953261;28;19914;-83
2021/04/25 11:18:53;;;;;;;;;;;;;;;22.52;27.49;100769.50;4981461;28;19918;-83
2021/04/25 11:21:42;;;;;;;;;;;;;;;22.04;29.47;100764.31;4946579;28;19922;-82
2021/04/25 11:24:27;;;;;;;;;;;;;;;22.02;29.90;100774.97;4967345;28;19914;-84
2021/04/25 11:27:31;;;;;;;;;;;;;;;22.24;29.21;100772.25;4966066;28;19914;-83
2021/04/25 11:30:33;;;;;;;;;;;;;;;22.24;29.57;100766.72;4968671;28;20393;-83
2021/04/25 11:33:31;;;;;;;;;;;;;;;21.89;31.23;100762.63;4966356;28;19921;-83
2021/04/25 11:36:35;;;;;;;;;;;;;;;22.24;30.11;100758.41;4963677;28;20292;-83
2021/04/25 11:39:21;;;;;;;;;;;;;;;22.18;30.31;100749.69;4970811;28;19914;-83
2021/04/25 11:42:07;;;;;;;;;;;;;;;21.97;30.44;100744.09;4968662;28;19918;-83
2021/04/25 11:44:52;;;;;;;;;;;;;;;22.40;28.16;100748.50;4972322;28;19914;-83
2021/04/25 11:47:43;;;;;;;;;;;;;;;22.43;29.31;100758.03;4985154;28;19914;-83
2021/04/25 11:50:35;;;;;;;;;;;;;;;22.50;27.68;100747.72;4954999;28;19914;-83
2021/04/25 11:53:30;;;;;;;;;;;;;;;22.31;28.60;100750.88;4971780;28;19918;-83
2021/04/25 11:56:22;;;;;;;;;;;;;;;22.86;27.37;100750.53;4964041;28;19913;-83
2021/04/25 11:59:07;;;;;;;;;;;;;;;22.95;28.06;100742.59;4963407;28;19919;-83
2021/04/25 12:02:04;;;;;;;;;;;;;;;22.73;28.09;100743.81;4952477;29;19919;-85
2021/04/25 12:04:51;;;;;;;;;;;;;;;22.60;28.17;100744.16;4950305;29;19915;-83
2021/04/25 12:07:41;;;;;;;;;;;;;;;22.79;27.63;100753.31;4961093;28;19914;-83
2021/04/25 12:10:35;;;;;;;;;;;;;;;22.51;29.08;100743.78;4950896;29;20308;-83
2021/04/25 12:13:29;;;;;;;;;;;;;;;22.75;28.13;100736.69;4948263;29;19914;-83
2021/04/25 12:16:17;;;;;;;;;;;;;;;22.50;29.56;100741.41;4953022;28;19914;-83
2021/04/25 12:19:02;;;;;;;;;;;;;;;22.16;30.69;100733.44;4964561;28;20297;-83
2021/04/25 12:21:47;;;;;;;;;;;;;;;22.15;29.68;100720.78;4963058;28;19918;-83
2021/04/25 12:24:32;;;;;;;;;;;;;;;22.27;30.41;100727.91;4951395;28;19914;-84
2021/04/25 12:27:17;;;;;;;;;;;;;;;22.28;30.46;100725.94;4950810;29;20293;-84
2021/04/25 12:30:01;;;;;;;;;;;;;;;22.21;31.47;100732.25;4962705;28;19915;-83
2021/04/25 12:32:46;;;;;;;;;;;;;;;21.65;33.21;100724.56;4954596;28;20377;-85
2021/04/25 12:35:32;;;;;;;;;;;;;;;21.96;32.28;100712.84;4965773;28;20365;-83
2021/04/25 12:38:16;;;;;;;;;;;;;;;21.66;32.46;100701.25;4948718;29;19914;-83
2021/04/25 12:41:08;;;;;;;;;;;;;;;22.07;31.11;100702.56;4959749;28;19915;-83
2021/04/25 12:43:54;;;;;;;;;;;;;;;22.14;31.08;100705.38;4949755;29;19915;-83
2021/04/25 12:46:39;;;;;;;;;;;;;;;22.33;29.91;100701.41;4948795;29;19914;-83
2021/04/25 12:49:37;;;;;;;;;;;;;;;22.55;28.78;100693.91;4951340;28;19918;-83
2021/04/25 12:52:33;;;;;;;;;;;;;;;22.95;28.15;100695.47;4964726;28;19914;-83
2021/04/25 12:55:25;;;;;;;;;;;;;;;23.01;28.67;100702.94;4947345;29;19914;-83
2021/04/25 12:58:10;;;;;;;;;;;;;;;22.73;29.95;100688.34;4951282;29;19915;-84
2021/04/25 13:00:54;;;;;;;;;;;;;;;22.37;30.01;100690.31;4947230;29;19915;-83
2021/04/25 13:03:40;;;;;;;;;;;;;;;22.54;30.33;100682.03;4961043;28;19918;-83
2021/04/25 13:06:25;;;;;;;;;;;;;;;22.12;31.89;100682.78;4951036;28;20377;-83
2021/04/25 13:09:13;;;;;;;;;;;;;;;21.89;32.54;100684.31;4962264;28;19914;-83
2021/04/25 13:11:58;;;;;;;;;;;;;;;22.33;31.34;100673.72;4947117;29;19915;-83
2021/04/25 13:15:04;;;;;;;;;;;;;;;22.40;30.67;100670.91;4964544;28;19914;-83
2021/04/25 13:17:57;;;;;;;;;;;;;;;22.81;29.28;100657.44;4962118;28;19914;-83
2021/04/25 13:20:46;;;;;;;;;;;;;;;23.00;28.83;100648.69;4965254;28;19918;-83
2021/04/25 13:23:34;;;;;;;;;;;;;;;23.03;29.46;100656.19;4949299;29;19922;-83
2021/04/25 13:26:19;;;;;;;;;;;;;;;22.31;31.07;100655.88;4947122;29;19914;-83
2021/04/25 13:29:05;;;;;;;;;;;;;;;22.28;31.57;100651.94;4951567;28;19914;-83
2021/04/25 13:31:50;;;;;;;;;;;;;;;22.08;32.08;100648.75;4949110;29;19914;-83
2021/04/25 13:34:34;;;;;;;;;;;;;;;22.09;32.20;100646.78;4946703;29;19918;-83
2021/04/25 13:37:19;;;;;;;;;;;;;;;21.71;33.26;100645.50;4964641;28;20369;-83
2021/04/25 13:40:05;;;;;;;;;;;;;;;22.40;29.39;100637.66;4945710;29;19915;-83
2021/04/25 13:42:50;;;;;;;;;;;;;;;22.82;29.62;100641.59;4947758;29;19918;-83
2021/04/25 13:45:34;;;;;;;;;;;;;;;22.91;29.35;100637.19;4945074;29;19914;-83
2021/04/25 13:48:19;;;;;;;;;;;;;;;22.69;30.14;100638.44;4963718;28;19940;-83
2021/04/25 13:51:07;;;;;;;;;;;;;;;22.41;31.38;100628.16;4946715;29;19914;-83
2021/04/25 13:53:51;;;;;;;;;;;;;;;22.62;30.65;100621.81;4958998;28;20301;-83
2021/04/25 13:56:36;;;;;;;;;;;;;;;22.48;31.00;100627.38;4948963;29;19914;-83
2021/04/25 13:59:20;;;;;;;;;;;;;;;22.72;29.54;100623.78;4961623;28;20393;-83
2021/04/25 14:02:05;;;;;;;;;;;;;;;22.70;30.18;100620.63;4945811;29;19922;-83
2021/04/25 14:04:50;;;;;;;;;;;;;;;22.59;31.05;100619.84;4949522;29;19914;-83
2021/04/25 14:07:35;;;;;;;;;;;;;;;22.38;31.65;100619.88;4947983;29;19918;-83
2021/04/25 14:10:21;;;;;;;;;;;;;;;21.74;33.44;100615.06;4958475;28;19915;-82
2021/04/25 14:13:06;;;;;;;;;;;;;;;21.75;33.21;100613.09;4963949;28;19918;-83